New England — V7HF3 — position and weather

sailwx.info

Track history (hours):
 
Tides and Currents Weather Stations Pressure Air Temp Water Temp Dewpoint Dewpoint Depression Visibility Wind Speed Wind Dir Waves Ship Positions

New England

Last reported at 2014-Jul-26 07:17 UTC. Time now 2014-Jul-29 00:34 UTC.
Position N 42°10' W 070°31'.

Length 182 m; draft 7.1 m.

Type: Ship. MMSI: 538002220.

Date/timePositionNaut miles runAvg speedWind from/ knotsBaromVisibWave heightAir tempDewpointWater temp
2014-Jul-26 07:17N 42°10' W 070°31'1014.2
2014-Jul-26 06:33N 41°60' W 070°29'1312.5
2014-Jul-26 05:31N 41°47' W 070°30'12 6.2
2014-Jul-26 03:34N 41°39' W 070°42'1312.9
2014-Jul-26 02:34N 41°29' W 070°53'1413.8
2014-Jul-26 01:33N 41°24' W 071°10'1010.3
2014-Jul-26 00:34N 41°30' W 071°21'1212.5
2014-Jul-25 23:33N 41°43' W 071°20'6 5.8
2014-Jul-25 22:29N 41°48' W 071°24'0 0.0
2014-Jul-25 21:29N 41°48' W 071°24'0 0.0
2014-Jul-25 17:27N 41°48' W 071°24'0 0.0
2014-Jul-25 15:32N 41°48' W 071°24'0 0.0
2014-Jul-25 14:32N 41°48' W 071°24'0 0.0
2014-Jul-25 13:31N 41°48' W 071°24'0 0.0
2014-Jul-25 12:25N 41°48' W 071°24'0 0.0
2014-Jul-25 11:27N 41°48' W 071°24'0 0.0
2014-Jul-25 10:30N 41°48' W 071°24'0 0.0
2014-Jul-25 09:30N 41°48' W 071°24'0 0.0
2014-Jul-25 08:29N 41°48' W 071°24'0 0.0
2014-Jul-25 07:29N 41°48' W 071°24'0 0.0
2014-Jul-25 06:28N 41°48' W 071°24'0 0.0
2014-Jul-25 05:28N 41°48' W 071°24'0 0.0
2014-Jul-25 04:33N 41°48' W 071°24'0 0.0
2014-Jul-25 03:33N 41°48' W 071°24'0 0.0
2014-Jul-25 02:26N 41°48' W 071°24'0 0.0
2014-Jul-25 01:32N 41°48' W 071°24'0 0.0
2014-Jul-25 00:26N 41°48' W 071°24'0 0.0
2014-Jul-24 23:31N 41°48' W 071°24'0 0.0
2014-Jul-24 22:31N 41°48' W 071°24'0 0.0
2014-Jul-24 21:30N 41°48' W 071°24'0 0.0
2014-Jul-24 20:12N 41°48' W 071°24'0 0.0
2014-Jul-24 19:23N 41°48' W 071°24'0 0.0
2014-Jul-24 18:29N 41°48' W 071°24'0 0.0
2014-Jul-24 17:29N 41°48' W 071°24'0 0.0
2014-Jul-24 16:31N 41°48' W 071°24'0 0.3
2014-Jul-24 15:33N 41°48' W 071°23'8 8.2
2014-Jul-24 14:33N 41°41' W 071°19'1111.1
2014-Jul-24 13:33N 41°30' W 071°21'8 8.4
2014-Jul-24 12:33N 41°21' W 071°21'1110.9
2014-Jul-24 11:33N 41°10' W 071°21'1111.3
2014-Jul-24 10:33N 41°03' W 071°10'1313.2
2014-Jul-24 09:33N 40°57' W 070°55'1313.1
2014-Jul-24 08:33N 40°51' W 070°39'1313.4
2014-Jul-24 07:33N 40°45' W 070°23'1413.6
2014-Jul-24 06:30N 40°38' W 070°06'1213.2
2014-Jul-24 05:33N 40°34' W 069°51'1313.5
2014-Jul-24 04:33N 40°35' W 069°33'1313.4
2014-Jul-24 03:33N 40°35' W 069°15'1312.5
2014-Jul-24 02:33N 40°43' W 069°03'1212.5
2014-Jul-24 01:33N 40°52' W 068°51'1211.5
2014-Jul-24 00:33N 41°03' W 068°50'1010.4
2014-Jul-23 23:33N 41°14' W 068°49'10 9.9
2014-Jul-23 22:33N 41°24' W 068°49'10 9.8
2014-Jul-23 21:33N 41°34' W 068°48'10 9.4
2014-Jul-23 20:32N 41°43' W 068°47'1010.0
2014-Jul-23 19:31N 41°52' W 068°41'  
2014-Jul-20 11:27N 42°29' W 070°40'14 2.8
2014-Jul-20 06:33N 42°22' W 070°55'1312.3
2014-Jul-20 05:31N 42°29' W 070°41'  
Track history (hours):
 
Tides and Currents Weather Stations Pressure Air Temp Water Temp Dewpoint Dewpoint Depression Visibility Wind Speed Wind Dir Waves Ship Positions

New England

Last reported at 2014-Jul-26 07:17 UTC. Time now 2014-Jul-29 00:34 UTC.
Position N 42°10' W 070°31'.

Length 182 m; draft 7.1 m.

Type: Ship. MMSI: 538002220.

Date/timePositionNaut miles runAvg speedWind from/ knotsBaromVisibWave heightAir tempDewpointWater temp
2014-Jul-26 07:17N 42°10' W 070°31'1014.2
2014-Jul-26 06:33N 41°60' W 070°29'1312.5
2014-Jul-26 05:31N 41°47' W 070°30'12 6.2
2014-Jul-26 03:34N 41°39' W 070°42'1312.9
2014-Jul-26 02:34N 41°29' W 070°53'1413.8
2014-Jul-26 01:33N 41°24' W 071°10'1010.3
2014-Jul-26 00:34N 41°30' W 071°21'1212.5
2014-Jul-25 23:33N 41°43' W 071°20'6 5.8
2014-Jul-25 22:29N 41°48' W 071°24'0 0.0
2014-Jul-25 21:29N 41°48' W 071°24'0 0.0
2014-Jul-25 17:27N 41°48' W 071°24'0 0.0
2014-Jul-25 15:32N 41°48' W 071°24'0 0.0
2014-Jul-25 14:32N 41°48' W 071°24'0 0.0
2014-Jul-25 13:31N 41°48' W 071°24'0 0.0
2014-Jul-25 12:25N 41°48' W 071°24'0 0.0
2014-Jul-25 11:27N 41°48' W 071°24'0 0.0
2014-Jul-25 10:30N 41°48' W 071°24'0 0.0
2014-Jul-25 09:30N 41°48' W 071°24'0 0.0
2014-Jul-25 08:29N 41°48' W 071°24'0 0.0
2014-Jul-25 07:29N 41°48' W 071°24'0 0.0
2014-Jul-25 06:28N 41°48' W 071°24'0 0.0
2014-Jul-25 05:28N 41°48' W 071°24'0 0.0
2014-Jul-25 04:33N 41°48' W 071°24'0 0.0
2014-Jul-25 03:33N 41°48' W 071°24'0 0.0
2014-Jul-25 02:26N 41°48' W 071°24'0 0.0
2014-Jul-25 01:32N 41°48' W 071°24'0 0.0
2014-Jul-25 00:26N 41°48' W 071°24'0 0.0
2014-Jul-24 23:31N 41°48' W 071°24'0 0.0
2014-Jul-24 22:31N 41°48' W 071°24'0 0.0
2014-Jul-24 21:30N 41°48' W 071°24'0 0.0
2014-Jul-24 20:12N 41°48' W 071°24'0 0.0
2014-Jul-24 19:23N 41°48' W 071°24'0 0.0
2014-Jul-24 18:29N 41°48' W 071°24'0 0.0
2014-Jul-24 17:29N 41°48' W 071°24'0 0.0
2014-Jul-24 16:31N 41°48' W 071°24'0 0.3
2014-Jul-24 15:33N 41°48' W 071°23'8 8.2
2014-Jul-24 14:33N 41°41' W 071°19'1111.1
2014-Jul-24 13:33N 41°30' W 071°21'8 8.4
2014-Jul-24 12:33N 41°21' W 071°21'1110.9
2014-Jul-24 11:33N 41°10' W 071°21'1111.3
2014-Jul-24 10:33N 41°03' W 071°10'1313.2
2014-Jul-24 09:33N 40°57' W 070°55'1313.1
2014-Jul-24 08:33N 40°51' W 070°39'1313.4
2014-Jul-24 07:33N 40°45' W 070°23'1413.6
2014-Jul-24 06:30N 40°38' W 070°06'1213.2
2014-Jul-24 05:33N 40°34' W 069°51'1313.5
2014-Jul-24 04:33N 40°35' W 069°33'1313.4
2014-Jul-24 03:33N 40°35' W 069°15'1312.5
2014-Jul-24 02:33N 40°43' W 069°03'1212.5
2014-Jul-24 01:33N 40°52' W 068°51'1211.5
2014-Jul-24 00:33N 41°03' W 068°50'1010.4
2014-Jul-23 23:33N 41°14' W 068°49'10 9.9
2014-Jul-23 22:33N 41°24' W 068°49'10 9.8
2014-Jul-23 21:33N 41°34' W 068°48'10 9.4
2014-Jul-23 20:32N 41°43' W 068°47'1010.0
2014-Jul-23 19:31N 41°52' W 068°41'  
2014-Jul-20 11:27N 42°29' W 070°40'14 2.8
2014-Jul-20 06:33N 42°22' W 070°55'1312.3
2014-Jul-20 05:31N 42°29' W 070°41'  

Dump ship's entire track history